sensor_id;sensor_type;location;lat;lon;timestamp;temperature;humidity
78793;SHT31;68134;51.984;5.652;2023-03-12T00:01:48;5.7;49.1
78793;SHT31;68134;51.984;5.652;2023-03-12T00:04:17;5.7;49.5
78793;SHT31;68134;51.984;5.652;2023-03-12T00:06:47;5.7;49.4
78793;SHT31;68134;51.984;5.652;2023-03-12T00:09:16;5.7;49.5
78793;SHT31;68134;51.984;5.652;2023-03-12T00:11:46;5.7;49.5
78793;SHT31;68134;51.984;5.652;2023-03-12T00:14:16;5.7;49.8
78793;SHT31;68134;51.984;5.652;2023-03-12T00:16:45;5.7;49.5
78793;SHT31;68134;51.984;5.652;2023-03-12T00:19:15;5.7;49.9
78793;SHT31;68134;51.984;5.652;2023-03-12T00:21:47;5.6;49.4
78793;SHT31;68134;51.984;5.652;2023-03-12T00:24:16;5.6;49.4
78793;SHT31;68134;51.984;5.652;2023-03-12T00:26:46;5.6;49.6
78793;SHT31;68134;51.984;5.652;2023-03-12T00:29:16;5.6;49.9
78793;SHT31;68134;51.984;5.652;2023-03-12T00:31:46;5.6;49.4
78793;SHT31;68134;51.984;5.652;2023-03-12T00:34:19;5.6;50.2
78793;SHT31;68134;51.984;5.652;2023-03-12T00:36:49;5.6;50.3
78793;SHT31;68134;51.984;5.652;2023-03-12T00:39:21;5.6;49.9
78793;SHT31;68134;51.984;5.652;2023-03-12T00:41:50;5.5;50.0
78793;SHT31;68134;51.984;5.652;2023-03-12T00:44:22;5.5;50.0
78793;SHT31;68134;51.984;5.652;2023-03-12T00:46:53;5.5;50.3
78793;SHT31;68134;51.984;5.652;2023-03-12T00:49:22;5.5;50.3
78793;SHT31;68134;51.984;5.652;2023-03-12T00:51:52;5.5;50.3
78793;SHT31;68134;51.984;5.652;2023-03-12T00:54:22;5.5;50.6
78793;SHT31;68134;51.984;5.652;2023-03-12T00:56:54;5.5;51.0
78793;SHT31;68134;51.984;5.652;2023-03-12T00:59:24;5.5;51.2
78793;SHT31;68134;51.984;5.652;2023-03-12T01:01:54;5.5;51.0
78793;SHT31;68134;51.984;5.652;2023-03-12T01:04:24;5.5;50.9
78793;SHT31;68134;51.984;5.652;2023-03-12T01:06:54;5.5;51.4
78793;SHT31;68134;51.984;5.652;2023-03-12T01:09:24;5.5;51.5
78793;SHT31;68134;51.984;5.652;2023-03-12T01:11:55;5.5;51.6
78793;SHT31;68134;51.984;5.652;2023-03-12T01:14:25;5.5;51.4
78793;SHT31;68134;51.984;5.652;2023-03-12T01:16:55;5.5;51.3
78793;SHT31;68134;51.984;5.652;2023-03-12T01:19:24;5.5;51.7
78793;SHT31;68134;51.984;5.652;2023-03-12T01:21:54;5.5;51.9
78793;SHT31;68134;51.984;5.652;2023-03-12T01:24:25;5.5;51.7
78793;SHT31;68134;51.984;5.652;2023-03-12T01:26:55;5.5;52.2
78793;SHT31;68134;51.984;5.652;2023-03-12T01:29:25;5.5;52.2
78793;SHT31;68134;51.984;5.652;2023-03-12T01:31:54;5.5;52.0
78793;SHT31;68134;51.984;5.652;2023-03-12T01:34:24;5.5;52.5
78793;SHT31;68134;51.984;5.652;2023-03-12T01:36:54;5.5;52.5
78793;SHT31;68134;51.984;5.652;2023-03-12T01:39:23;5.4;52.6
78793;SHT31;68134;51.984;5.652;2023-03-12T01:41:54;5.4;52.5
78793;SHT31;68134;51.984;5.652;2023-03-12T01:44:24;5.4;52.6
78793;SHT31;68134;51.984;5.652;2023-03-12T01:46:53;5.4;52.3
78793;SHT31;68134;51.984;5.652;2023-03-12T01:49:26;5.4;52.5
78793;SHT31;68134;51.984;5.652;2023-03-12T01:52:00;5.3;53.1
78793;SHT31;68134;51.984;5.652;2023-03-12T01:54:33;5.3;53.0
78793;SHT31;68134;51.984;5.652;2023-03-12T01:57:10;5.3;53.0
78793;SHT31;68134;51.984;5.652;2023-03-12T01:59:45;5.3;53.0
78793;SHT31;68134;51.984;5.652;2023-03-12T02:02:18;5.3;53.0
78793;SHT31;68134;51.984;5.652;2023-03-12T02:05:02;5.3;52.9
78793;SHT31;68134;51.984;5.652;2023-03-12T02:07:34;5.3;52.7
78793;SHT31;68134;51.984;5.652;2023-03-12T02:10:05;5.3;53.2
78793;SHT31;68134;51.984;5.652;2023-03-12T02:12:35;5.3;53.0
78793;SHT31;68134;51.984;5.652;2023-03-12T02:15:06;5.4;53.1
78793;SHT31;68134;51.984;5.652;2023-03-12T02:17:37;5.4;52.6
78793;SHT31;68134;51.984;5.652;2023-03-12T02:20:14;5.4;52.7
78793;SHT31;68134;51.984;5.652;2023-03-12T02:22:51;5.4;52.8
78793;SHT31;68134;51.984;5.652;2023-03-12T02:25:30;5.4;52.7
78793;SHT31;68134;51.984;5.652;2023-03-12T02:28:07;5.5;52.3
78793;SHT31;68134;51.984;5.652;2023-03-12T02:30:40;5.5;52.4
78793;SHT31;68134;51.984;5.652;2023-03-12T02:33:11;5.5;51.8
78793;SHT31;68134;51.984;5.652;2023-03-12T02:35:42;5.5;51.9
78793;SHT31;68134;51.984;5.652;2023-03-12T02:38:36;5.5;52.0
78793;SHT31;68134;51.984;5.652;2023-03-12T02:41:11;5.5;51.5
78793;SHT31;68134;51.984;5.652;2023-03-12T02:43:44;5.5;51.4
78793;SHT31;68134;51.984;5.652;2023-03-12T02:46:14;5.5;51.6
78793;SHT31;68134;51.984;5.652;2023-03-12T02:48:44;5.5;51.5
78793;SHT31;68134;51.984;5.652;2023-03-12T02:51:14;5.5;52.0
78793;SHT31;68134;51.984;5.652;2023-03-12T02:53:44;5.5;51.5
78793;SHT31;68134;51.984;5.652;2023-03-12T02:56:13;5.5;51.7
78793;SHT31;68134;51.984;5.652;2023-03-12T02:58:43;5.5;51.7
78793;SHT31;68134;51.984;5.652;2023-03-12T03:01:12;5.5;50.9
78793;SHT31;68134;51.984;5.652;2023-03-12T03:03:42;5.5;51.7
78793;SHT31;68134;51.984;5.652;2023-03-12T03:06:13;5.5;51.3
78793;SHT31;68134;51.984;5.652;2023-03-12T03:08:43;5.5;51.8
78793;SHT31;68134;51.984;5.652;2023-03-12T03:11:13;5.5;51.8
78793;SHT31;68134;51.984;5.652;2023-03-12T03:13:45;5.5;50.9
78793;SHT31;68134;51.984;5.652;2023-03-12T03:16:14;5.5;51.2
78793;SHT31;68134;51.984;5.652;2023-03-12T03:18:44;5.6;51.7
78793;SHT31;68134;51.984;5.652;2023-03-12T03:21:14;5.6;52.0
78793;SHT31;68134;51.984;5.652;2023-03-12T03:23:46;5.6;51.3
78793;SHT31;68134;51.984;5.652;2023-03-12T03:26:18;5.5;51.8
78793;SHT31;68134;51.984;5.652;2023-03-12T03:28:49;5.5;52.3
78793;SHT31;68134;51.984;5.652;2023-03-12T03:31:19;5.5;52.6
78793;SHT31;68134;51.984;5.652;2023-03-12T03:33:49;5.5;52.7
78793;SHT31;68134;51.984;5.652;2023-03-12T03:36:19;5.5;52.7
78793;SHT31;68134;51.984;5.652;2023-03-12T03:38:49;5.5;52.4
78793;SHT31;68134;51.984;5.652;2023-03-12T03:41:20;5.5;53.1
78793;SHT31;68134;51.984;5.652;2023-03-12T03:43:54;5.5;52.8
78793;SHT31;68134;51.984;5.652;2023-03-12T03:46:24;5.5;53.4
78793;SHT31;68134;51.984;5.652;2023-03-12T03:48:54;5.5;52.9
78793;SHT31;68134;51.984;5.652;2023-03-12T03:51:24;5.5;53.5
78793;SHT31;68134;51.984;5.652;2023-03-12T03:53:53;5.5;53.5
78793;SHT31;68134;51.984;5.652;2023-03-12T03:56:25;5.5;53.5
78793;SHT31;68134;51.984;5.652;2023-03-12T03:58:55;5.5;53.7
78793;SHT31;68134;51.984;5.652;2023-03-12T04:01:26;5.5;53.8
78793;SHT31;68134;51.984;5.652;2023-03-12T04:03:58;5.5;53.9
78793;SHT31;68134;51.984;5.652;2023-03-12T04:06:28;5.5;53.9
78793;SHT31;68134;51.984;5.652;2023-03-12T04:08:59;5.5;54.1
78793;SHT31;68134;51.984;5.652;2023-03-12T04:11:28;5.5;54.4
78793;SHT31;68134;51.984;5.652;2023-03-12T04:13:58;5.5;54.1
78793;SHT31;68134;51.984;5.652;2023-03-12T04:16:28;5.5;54.2
78793;SHT31;68134;51.984;5.652;2023-03-12T04:18:57;5.5;54.7
78793;SHT31;68134;51.984;5.652;2023-03-12T04:21:27;5.5;54.9
78793;SHT31;68134;51.984;5.652;2023-03-12T04:23:59;5.5;54.7
78793;SHT31;68134;51.984;5.652;2023-03-12T04:26:28;5.5;54.9
78793;SHT31;68134;51.984;5.652;2023-03-12T04:28:58;5.5;54.8
78793;SHT31;68134;51.984;5.652;2023-03-12T04:31:28;5.5;55.1
78793;SHT31;68134;51.984;5.652;2023-03-12T04:33:58;5.5;55.4
78793;SHT31;68134;51.984;5.652;2023-03-12T04:36:30;5.5;55.6
78793;SHT31;68134;51.984;5.652;2023-03-12T04:39:02;5.5;55.7
78793;SHT31;68134;51.984;5.652;2023-03-12T04:41:34;5.4;55.9
78793;SHT31;68134;51.984;5.652;2023-03-12T04:44:04;5.4;56.5
78793;SHT31;68134;51.984;5.652;2023-03-12T04:46:34;5.4;56.8
78793;SHT31;68134;51.984;5.652;2023-03-12T04:49:04;5.4;57.4
78793;SHT31;68134;51.984;5.652;2023-03-12T04:51:34;5.4;57.8
78793;SHT31;68134;51.984;5.652;2023-03-12T04:54:04;5.4;58.1
78793;SHT31;68134;51.984;5.652;2023-03-12T04:56:33;5.4;58.1
78793;SHT31;68134;51.984;5.652;2023-03-12T04:59:04;5.4;58.3
78793;SHT31;68134;51.984;5.652;2023-03-12T05:01:35;5.4;58.9
78793;SHT31;68134;51.984;5.652;2023-03-12T05:04:06;5.4;58.3
78793;SHT31;68134;51.984;5.652;2023-03-12T05:06:36;5.4;58.5
78793;SHT31;68134;51.984;5.652;2023-03-12T05:09:06;5.4;58.7
78793;SHT31;68134;51.984;5.652;2023-03-12T05:11:35;5.4;58.6
78793;SHT31;68134;51.984;5.652;2023-03-12T05:14:05;5.4;58.5
78793;SHT31;68134;51.984;5.652;2023-03-12T05:16:35;5.4;58.6
78793;SHT31;68134;51.984;5.652;2023-03-12T05:19:04;5.4;58.4
78793;SHT31;68134;51.984;5.652;2023-03-12T05:21:34;5.4;58.6
78793;SHT31;68134;51.984;5.652;2023-03-12T05:24:04;5.4;58.5
78793;SHT31;68134;51.984;5.652;2023-03-12T05:26:34;5.4;58.6
78793;SHT31;68134;51.984;5.652;2023-03-12T05:29:04;5.4;58.5
78793;SHT31;68134;51.984;5.652;2023-03-12T05:31:34;5.4;58.4
78793;SHT31;68134;51.984;5.652;2023-03-12T05:34:04;5.4;58.9
78793;SHT31;68134;51.984;5.652;2023-03-12T05:36:36;5.4;58.6
78793;SHT31;68134;51.984;5.652;2023-03-12T05:39:06;5.4;58.7
78793;SHT31;68134;51.984;5.652;2023-03-12T05:41:35;5.4;58.6
78793;SHT31;68134;51.984;5.652;2023-03-12T05:44:05;5.4;58.7
78793;SHT31;68134;51.984;5.652;2023-03-12T05:46:35;5.4;58.6
78793;SHT31;68134;51.984;5.652;2023-03-12T05:49:05;5.4;58.7
78793;SHT31;68134;51.984;5.652;2023-03-12T05:51:35;5.4;58.9
78793;SHT31;68134;51.984;5.652;2023-03-12T05:54:04;5.4;59.0
78793;SHT31;68134;51.984;5.652;2023-03-12T05:56:35;5.4;59.0
78793;SHT31;68134;51.984;5.652;2023-03-12T05:59:05;5.4;59.1
78793;SHT31;68134;51.984;5.652;2023-03-12T06:01:37;5.4;59.3
78793;SHT31;68134;51.984;5.652;2023-03-12T06:04:07;5.4;59.4
78793;SHT31;68134;51.984;5.652;2023-03-12T06:06:37;5.4;59.3
78793;SHT31;68134;51.984;5.652;2023-03-12T06:09:06;5.4;59.9
78793;SHT31;68134;51.984;5.652;2023-03-12T06:11:36;5.5;60.4
78793;SHT31;68134;51.984;5.652;2023-03-12T06:14:06;5.5;60.6
78793;SHT31;68134;51.984;5.652;2023-03-12T06:16:36;5.5;61.0
78793;SHT31;68134;51.984;5.652;2023-03-12T06:19:06;5.5;61.2
78793;SHT31;68134;51.984;5.652;2023-03-12T06:21:42;5.5;62.0
78793;SHT31;68134;51.984;5.652;2023-03-12T06:24:12;5.5;62.3
78793;SHT31;68134;51.984;5.652;2023-03-12T06:26:41;5.5;62.7
78793;SHT31;68134;51.984;5.652;2023-03-12T06:29:11;5.5;63.0
78793;SHT31;68134;51.984;5.652;2023-03-12T06:31:41;5.5;62.6
78793;SHT31;68134;51.984;5.652;2023-03-12T06:34:10;5.5;62.5
78793;SHT31;68134;51.984;5.652;2023-03-12T06:36:40;5.5;62.6
78793;SHT31;68134;51.984;5.652;2023-03-12T06:39:10;5.5;62.7
78793;SHT31;68134;51.984;5.652;2023-03-12T06:41:41;5.5;62.7
78793;SHT31;68134;51.984;5.652;2023-03-12T06:44:11;5.5;63.2
78793;SHT31;68134;51.984;5.652;2023-03-12T06:46:41;5.5;64.3
78793;SHT31;68134;51.984;5.652;2023-03-12T06:49:11;5.5;64.7
78793;SHT31;68134;51.984;5.652;2023-03-12T06:51:40;5.5;65.3
78793;SHT31;68134;51.984;5.652;2023-03-12T06:54:12;5.5;66.1
78793;SHT31;68134;51.984;5.652;2023-03-12T06:56:44;5.5;66.5
78793;SHT31;68134;51.984;5.652;2023-03-12T06:59:14;5.5;66.9
78793;SHT31;68134;51.984;5.652;2023-03-12T07:01:44;5.5;67.2
78793;SHT31;68134;51.984;5.652;2023-03-12T07:04:14;5.5;67.9
78793;SHT31;68134;51.984;5.652;2023-03-12T07:06:44;5.5;68.2
78793;SHT31;68134;51.984;5.652;2023-03-12T07:09:17;5.5;68.6
78793;SHT31;68134;51.984;5.652;2023-03-12T07:11:47;5.5;69.1
78793;SHT31;68134;51.984;5.652;2023-03-12T07:14:17;5.5;69.4
78793;SHT31;68134;51.984;5.652;2023-03-12T07:16:47;5.5;69.6
78793;SHT31;68134;51.984;5.652;2023-03-12T07:19:17;5.5;69.7
78793;SHT31;68134;51.984;5.652;2023-03-12T07:21:47;5.5;70.1
78793;SHT31;68134;51.984;5.652;2023-03-12T07:24:16;5.5;70.7
78793;SHT31;68134;51.984;5.652;2023-03-12T07:26:46;5.5;70.8
78793;SHT31;68134;51.984;5.652;2023-03-12T07:29:16;5.5;70.8
78793;SHT31;68134;51.984;5.652;2023-03-12T07:31:45;5.5;71.1
78793;SHT31;68134;51.984;5.652;2023-03-12T07:34:15;5.5;71.7
78793;SHT31;68134;51.984;5.652;2023-03-12T07:36:45;5.5;71.9
78793;SHT31;68134;51.984;5.652;2023-03-12T07:39:14;5.5;72.0
78793;SHT31;68134;51.984;5.652;2023-03-12T07:41:44;5.5;72.3
78793;SHT31;68134;51.984;5.652;2023-03-12T07:44:14;5.5;72.5
78793;SHT31;68134;51.984;5.652;2023-03-12T07:46:45;5.5;72.9
78793;SHT31;68134;51.984;5.652;2023-03-12T07:49:15;5.5;73.2
78793;SHT31;68134;51.984;5.652;2023-03-12T07:51:45;5.5;73.5
78793;SHT31;68134;51.984;5.652;2023-03-12T07:54:15;5.5;73.6
78793;SHT31;68134;51.984;5.652;2023-03-12T07:56:45;5.5;74.0
78793;SHT31;68134;51.984;5.652;2023-03-12T07:59:15;5.6;74.2
78793;SHT31;68134;51.984;5.652;2023-03-12T08:01:46;5.6;74.3
78793;SHT31;68134;51.984;5.652;2023-03-12T08:04:15;5.6;74.5
78793;SHT31;68134;51.984;5.652;2023-03-12T08:06:45;5.6;74.8
78793;SHT31;68134;51.984;5.652;2023-03-12T08:09:17;5.6;75.0
78793;SHT31;68134;51.984;5.652;2023-03-12T08:11:46;5.6;75.2
78793;SHT31;68134;51.984;5.652;2023-03-12T08:14:16;5.6;75.3
78793;SHT31;68134;51.984;5.652;2023-03-12T08:16:45;5.6;75.5
78793;SHT31;68134;51.984;5.652;2023-03-12T08:19:15;5.6;75.7
78793;SHT31;68134;51.984;5.652;2023-03-12T08:21:45;5.6;75.7
78793;SHT31;68134;51.984;5.652;2023-03-12T08:24:14;5.7;75.8
78793;SHT31;68134;51.984;5.652;2023-03-12T08:26:44;5.7;75.8
78793;SHT31;68134;51.984;5.652;2023-03-12T08:29:14;5.8;75.9
78793;SHT31;68134;51.984;5.652;2023-03-12T08:31:44;5.8;75.9
78793;SHT31;68134;51.984;5.652;2023-03-12T08:34:14;5.9;75.8
78793;SHT31;68134;51.984;5.652;2023-03-12T08:36:43;5.9;75.9
78793;SHT31;68134;51.984;5.652;2023-03-12T08:39:13;6.0;75.9
78793;SHT31;68134;51.984;5.652;2023-03-12T08:41:43;6.0;75.9
78793;SHT31;68134;51.984;5.652;2023-03-12T08:44:12;6.0;76.0
78793;SHT31;68134;51.984;5.652;2023-03-12T08:46:42;6.1;76.1
78793;SHT31;68134;51.984;5.652;2023-03-12T08:49:13;6.1;76.4
78793;SHT31;68134;51.984;5.652;2023-03-12T08:51:42;6.1;76.5
78793;SHT31;68134;51.984;5.652;2023-03-12T08:54:12;6.1;76.7
78793;SHT31;68134;51.984;5.652;2023-03-12T08:56:42;6.2;77.0
78793;SHT31;68134;51.984;5.652;2023-03-12T08:59:13;6.2;77.1
78793;SHT31;68134;51.984;5.652;2023-03-12T09:01:42;6.2;77.2
78793;SHT31;68134;51.984;5.652;2023-03-12T09:04:12;6.2;77.3
78793;SHT31;68134;51.984;5.652;2023-03-12T09:06:42;6.3;77.4
78793;SHT31;68134;51.984;5.652;2023-03-12T09:09:11;6.3;77.6
78793;SHT31;68134;51.984;5.652;2023-03-12T09:11:41;6.3;77.7
78793;SHT31;68134;51.984;5.652;2023-03-12T09:14:12;6.4;77.8
78793;SHT31;68134;51.984;5.652;2023-03-12T09:16:42;6.4;77.9
78793;SHT31;68134;51.984;5.652;2023-03-12T09:19:12;6.4;78.0
78793;SHT31;68134;51.984;5.652;2023-03-12T09:21:41;6.4;78.2
78793;SHT31;68134;51.984;5.652;2023-03-12T09:24:11;6.5;78.3
78793;SHT31;68134;51.984;5.652;2023-03-12T09:26:44;6.5;78.2
78793;SHT31;68134;51.984;5.652;2023-03-12T09:29:14;6.6;78.4
78793;SHT31;68134;51.984;5.652;2023-03-12T09:31:43;6.6;78.7
78793;SHT31;68134;51.984;5.652;2023-03-12T09:34:13;6.7;79.5
78793;SHT31;68134;51.984;5.652;2023-03-12T09:36:42;6.7;80.2
78793;SHT31;68134;51.984;5.652;2023-03-12T09:39:12;6.7;80.2
78793;SHT31;68134;51.984;5.652;2023-03-12T09:41:45;6.8;80.2
78793;SHT31;68134;51.984;5.652;2023-03-12T09:44:22;6.9;80.1
78793;SHT31;68134;51.984;5.652;2023-03-12T09:46:57;6.9;80.1
78793;SHT31;68134;51.984;5.652;2023-03-12T09:49:33;7.0;80.2
78793;SHT31;68134;51.984;5.652;2023-03-12T09:52:15;7.1;80.2
78793;SHT31;68134;51.984;5.652;2023-03-12T09:54:53;7.1;80.2
78793;SHT31;68134;51.984;5.652;2023-03-12T09:57:26;7.2;80.5
78793;SHT31;68134;51.984;5.652;2023-03-12T09:59:57;7.2;80.4
78793;SHT31;68134;51.984;5.652;2023-03-12T10:02:51;7.3;80.4
78793;SHT31;68134;51.984;5.652;2023-03-12T10:05:33;7.4;80.9
78793;SHT31;68134;51.984;5.652;2023-03-12T10:08:14;7.4;80.8
78793;SHT31;68134;51.984;5.652;2023-03-12T10:10:52;7.5;80.8
78793;SHT31;68134;51.984;5.652;2023-03-12T10:13:55;7.6;81.1
78793;SHT31;68134;51.984;5.652;2023-03-12T10:16:40;7.6;81.2
78793;SHT31;68134;51.984;5.652;2023-03-12T10:19:33;7.7;81.4
78793;SHT31;68134;51.984;5.652;2023-03-12T10:22:16;7.7;81.3
78793;SHT31;68134;51.984;5.652;2023-03-12T10:24:58;7.8;81.4
78793;SHT31;68134;51.984;5.652;2023-03-12T10:27:34;7.9;81.4
78793;SHT31;68134;51.984;5.652;2023-03-12T10:30:15;7.9;81.5
78793;SHT31;68134;51.984;5.652;2023-03-12T10:32:48;8.0;81.8
78793;SHT31;68134;51.984;5.652;2023-03-12T10:35:20;8.1;82.1
78793;SHT31;68134;51.984;5.652;2023-03-12T10:37:54;8.1;82.3
78793;SHT31;68134;51.984;5.652;2023-03-12T10:40:27;8.2;82.4
78793;SHT31;68134;51.984;5.652;2023-03-12T10:42:57;8.3;83.0
78793;SHT31;68134;51.984;5.652;2023-03-12T10:45:35;8.4;82.9
78793;SHT31;68134;51.984;5.652;2023-03-12T10:48:08;8.4;83.1
78793;SHT31;68134;51.984;5.652;2023-03-12T10:50:39;8.5;83.3
78793;SHT31;68134;51.984;5.652;2023-03-12T10:53:23;8.6;83.4
78793;SHT31;68134;51.984;5.652;2023-03-12T10:56:02;8.7;83.6
78793;SHT31;68134;51.984;5.652;2023-03-12T10:58:34;8.8;83.7
78793;SHT31;68134;51.984;5.652;2023-03-12T11:01:10;8.9;83.8
78793;SHT31;68134;51.984;5.652;2023-03-12T11:03:41;8.9;83.7
78793;SHT31;68134;51.984;5.652;2023-03-12T11:06:23;9.0;83.6
78793;SHT31;68134;51.984;5.652;2023-03-12T11:09:04;9.1;83.7
78793;SHT31;68134;51.984;5.652;2023-03-12T11:11:35;9.2;83.8
78793;SHT31;68134;51.984;5.652;2023-03-12T11:14:14;9.3;83.6
78793;SHT31;68134;51.984;5.652;2023-03-12T11:16:42;9.4;84.2
78793;SHT31;68134;51.984;5.652;2023-03-12T11:19:14;9.5;83.9
78793;SHT31;68134;51.984;5.652;2023-03-12T11:21:57;9.7;83.5
78793;SHT31;68134;51.984;5.652;2023-03-12T11:24:28;9.8;82.6
78793;SHT31;68134;51.984;5.652;2023-03-12T11:27:01;9.9;82.2
78793;SHT31;68134;51.984;5.652;2023-03-12T11:29:35;9.9;81.8
78793;SHT31;68134;51.984;5.652;2023-03-12T11:32:16;10.0;81.4
78793;SHT31;68134;51.984;5.652;2023-03-12T11:34:47;10.1;81.1
78793;SHT31;68134;51.984;5.652;2023-03-12T11:37:28;10.1;81.2
78793;SHT31;68134;51.984;5.652;2023-03-12T11:40:15;10.2;81.5
78793;SHT31;68134;51.984;5.652;2023-03-12T11:43:08;10.3;81.4
78793;SHT31;68134;51.984;5.652;2023-03-12T11:45:51;10.3;81.1
78793;SHT31;68134;51.984;5.652;2023-03-12T11:48:30;10.4;81.0
78793;SHT31;68134;51.984;5.652;2023-03-12T11:51:18;10.4;81.4
78793;SHT31;68134;51.984;5.652;2023-03-12T11:54:07;10.4;81.5
78793;SHT31;68134;51.984;5.652;2023-03-12T11:56:44;10.5;82.3
78793;SHT31;68134;51.984;5.652;2023-03-12T12:00:12;10.6;81.9
78793;SHT31;68134;51.984;5.652;2023-03-12T12:06:02;10.8;80.4
78793;SHT31;68134;51.984;5.652;2023-03-12T12:08:50;10.8;79.7
78793;SHT31;68134;51.984;5.652;2023-03-12T12:11:30;10.9;79.7
78793;SHT31;68134;51.984;5.652;2023-03-12T12:14:17;10.9;79.5
78793;SHT31;68134;51.984;5.652;2023-03-12T12:17:06;11.0;79.6
78793;SHT31;68134;51.984;5.652;2023-03-12T12:19:51;11.0;79.9
78793;SHT31;68134;51.984;5.652;2023-03-12T12:22:32;11.1;80.1
78793;SHT31;68134;51.984;5.652;2023-03-12T12:25:31;11.1;79.5
78793;SHT31;68134;51.984;5.652;2023-03-12T12:28:19;11.2;78.9
78793;SHT31;68134;51.984;5.652;2023-03-12T12:31:03;11.2;78.3
78793;SHT31;68134;51.984;5.652;2023-03-12T12:33:47;11.2;77.7
78793;SHT31;68134;51.984;5.652;2023-03-12T12:36:22;11.2;77.4
78793;SHT31;68134;51.984;5.652;2023-03-12T12:38:56;11.2;77.5
78793;SHT31;68134;51.984;5.652;2023-03-12T12:41:31;11.3;78.5
78793;SHT31;68134;51.984;5.652;2023-03-12T12:44:12;11.3;78.3
78793;SHT31;68134;51.984;5.652;2023-03-12T12:46:48;11.3;77.6
78793;SHT31;68134;51.984;5.652;2023-03-12T12:49:24;11.3;77.8
78793;SHT31;68134;51.984;5.652;2023-03-12T12:51:58;11.4;77.3
78793;SHT31;68134;51.984;5.652;2023-03-12T12:54:33;11.4;76.6
78793;SHT31;68134;51.984;5.652;2023-03-12T12:57:12;11.4;76.9
78793;SHT31;68134;51.984;5.652;2023-03-12T12:59:53;11.4;76.1
78793;SHT31;68134;51.984;5.652;2023-03-12T13:02:28;11.4;76.4
78793;SHT31;68134;51.984;5.652;2023-03-12T13:05:00;11.4;75.7
78793;SHT31;68134;51.984;5.652;2023-03-12T13:07:32;11.4;75.8
78793;SHT31;68134;51.984;5.652;2023-03-12T13:10:06;11.4;75.7
78793;SHT31;68134;51.984;5.652;2023-03-12T13:12:50;11.5;75.6
78793;SHT31;68134;51.984;5.652;2023-03-12T13:15:35;11.5;75.7
78793;SHT31;68134;51.984;5.652;2023-03-12T13:18:22;11.5;75.5
78793;SHT31;68134;51.984;5.652;2023-03-12T13:21:09;11.6;75.3
78793;SHT31;68134;51.984;5.652;2023-03-12T13:23:52;11.7;74.9
78793;SHT31;68134;51.984;5.652;2023-03-12T13:26:31;11.7;74.6
78793;SHT31;68134;51.984;5.652;2023-03-12T13:29:19;11.8;73.0
78793;SHT31;68134;51.984;5.652;2023-03-12T13:31:50;11.9;73.1
78793;SHT31;68134;51.984;5.652;2023-03-12T13:34:43;12.0;72.6
78793;SHT31;68134;51.984;5.652;2023-03-12T13:38:36;12.1;71.4
78793;SHT31;68134;51.984;5.652;2023-03-12T13:41:07;12.1;70.3
78793;SHT31;68134;51.984;5.652;2023-03-12T13:43:55;12.1;69.4
78793;SHT31;68134;51.984;5.652;2023-03-12T13:46:33;12.2;69.7
78793;SHT31;68134;51.984;5.652;2023-03-12T13:49:10;12.2;69.3
78793;SHT31;68134;51.984;5.652;2023-03-12T13:51:58;12.2;69.3
78793;SHT31;68134;51.984;5.652;2023-03-12T13:54:32;12.2;69.3
78793;SHT31;68134;51.984;5.652;2023-03-12T13:57:20;12.3;69.4
78793;SHT31;68134;51.984;5.652;2023-03-12T13:59:51;12.4;69.0
78793;SHT31;68134;51.984;5.652;2023-03-12T14:02:25;12.5;68.0
78793;SHT31;68134;51.984;5.652;2023-03-12T14:05:04;12.6;68.2
78793;SHT31;68134;51.984;5.652;2023-03-12T14:08:09;12.9;67.0
78793;SHT31;68134;51.984;5.652;2023-03-12T14:10:54;13.4;64.5
78793;SHT31;68134;51.984;5.652;2023-03-12T14:13:41;13.7;64.1
78793;SHT31;68134;51.984;5.652;2023-03-12T14:16:21;14.0;62.4
78793;SHT31;68134;51.984;5.652;2023-03-12T14:18:53;14.2;61.3
78793;SHT31;68134;51.984;5.652;2023-03-12T14:21:28;14.4;60.3
78793;SHT31;68134;51.984;5.652;2023-03-12T14:24:02;14.4;59.9
78793;SHT31;68134;51.984;5.652;2023-03-12T14:26:35;14.5;59.6
78793;SHT31;68134;51.984;5.652;2023-03-12T14:29:08;14.5;57.1
78793;SHT31;68134;51.984;5.652;2023-03-12T14:31:39;14.5;57.2
78793;SHT31;68134;51.984;5.652;2023-03-12T14:34:18;14.5;57.5
78793;SHT31;68134;51.984;5.652;2023-03-12T14:36:57;14.5;56.9
78793;SHT31;68134;51.984;5.652;2023-03-12T14:39:33;14.4;56.7
78793;SHT31;68134;51.984;5.652;2023-03-12T14:42:05;14.4;56.6
78793;SHT31;68134;51.984;5.652;2023-03-12T14:44:36;14.4;56.0
78793;SHT31;68134;51.984;5.652;2023-03-12T14:47:08;14.4;54.8
78793;SHT31;68134;51.984;5.652;2023-03-12T14:49:42;14.3;55.2
78793;SHT31;68134;51.984;5.652;2023-03-12T14:52:12;14.3;55.8
78793;SHT31;68134;51.984;5.652;2023-03-12T14:54:54;14.2;55.8
78793;SHT31;68134;51.984;5.652;2023-03-12T14:57:24;14.2;56.0
78793;SHT31;68134;51.984;5.652;2023-03-12T14:59:56;14.2;56.1
78793;SHT31;68134;51.984;5.652;2023-03-12T15:02:29;14.2;56.8
78793;SHT31;68134;51.984;5.652;2023-03-12T15:05:00;14.2;57.5
78793;SHT31;68134;51.984;5.652;2023-03-12T15:07:35;14.2;57.4
78793;SHT31;68134;51.984;5.652;2023-03-12T15:10:17;14.3;56.9
78793;SHT31;68134;51.984;5.652;2023-03-12T15:12:49;14.3;56.6
78793;SHT31;68134;51.984;5.652;2023-03-12T15:15:30;14.3;56.1
78793;SHT31;68134;51.984;5.652;2023-03-12T15:18:03;14.4;55.9
78793;SHT31;68134;51.984;5.652;2023-03-12T15:20:34;14.4;55.2
78793;SHT31;68134;51.984;5.652;2023-03-12T15:23:11;14.4;54.9
78793;SHT31;68134;51.984;5.652;2023-03-12T15:25:41;14.4;55.0
78793;SHT31;68134;51.984;5.652;2023-03-12T15:28:26;14.4;54.8
78793;SHT31;68134;51.984;5.652;2023-03-12T15:31:08;14.4;54.4
78793;SHT31;68134;51.984;5.652;2023-03-12T15:33:39;14.3;54.7
78793;SHT31;68134;51.984;5.652;2023-03-12T15:36:22;14.3;55.1
78793;SHT31;68134;51.984;5.652;2023-03-12T15:38:55;14.2;55.0
78793;SHT31;68134;51.984;5.652;2023-03-12T15:41:39;14.1;55.8
78793;SHT31;68134;51.984;5.652;2023-03-12T15:44:18;14.1;56.7
78793;SHT31;68134;51.984;5.652;2023-03-12T15:46:51;14.0;56.9
78793;SHT31;68134;51.984;5.652;2023-03-12T15:49:26;14.0;56.4
78793;SHT31;68134;51.984;5.652;2023-03-12T15:52:01;14.0;56.2
78793;SHT31;68134;51.984;5.652;2023-03-12T15:54:32;13.9;56.6
78793;SHT31;68134;51.984;5.652;2023-03-12T15:57:22;13.9;56.2
78793;SHT31;68134;51.984;5.652;2023-03-12T16:00:41;13.8;56.7
78793;SHT31;68134;51.984;5.652;2023-03-12T16:03:17;13.8;56.5
78793;SHT31;68134;51.984;5.652;2023-03-12T16:05:48;13.8;57.0
78793;SHT31;68134;51.984;5.652;2023-03-12T16:08:21;13.7;57.0
78793;SHT31;68134;51.984;5.652;2023-03-12T16:10:54;13.7;57.0
78793;SHT31;68134;51.984;5.652;2023-03-12T16:13:27;13.7;57.2
78793;SHT31;68134;51.984;5.652;2023-03-12T16:15:58;13.7;57.3
78793;SHT31;68134;51.984;5.652;2023-03-12T16:18:30;13.6;57.7
78793;SHT31;68134;51.984;5.652;2023-03-12T16:21:00;13.6;58.0
78793;SHT31;68134;51.984;5.652;2023-03-12T16:23:30;13.5;58.5
78793;SHT31;68134;51.984;5.652;2023-03-12T16:26:01;13.5;58.8
78793;SHT31;68134;51.984;5.652;2023-03-12T16:28:33;13.4;59.0
78793;SHT31;68134;51.984;5.652;2023-03-12T16:31:09;13.4;59.6
78793;SHT31;68134;51.984;5.652;2023-03-12T16:33:42;13.4;60.0
78793;SHT31;68134;51.984;5.652;2023-03-12T16:36:15;13.4;60.0
78793;SHT31;68134;51.984;5.652;2023-03-12T16:38:46;13.4;60.1
78793;SHT31;68134;51.984;5.652;2023-03-12T16:41:16;13.3;60.4
78793;SHT31;68134;51.984;5.652;2023-03-12T16:43:49;13.3;60.0
78793;SHT31;68134;51.984;5.652;2023-03-12T16:46:21;13.3;60.0
78793;SHT31;68134;51.984;5.652;2023-03-12T16:48:52;13.2;60.1
78793;SHT31;68134;51.984;5.652;2023-03-12T16:51:22;13.2;59.9
78793;SHT31;68134;51.984;5.652;2023-03-12T16:53:52;13.1;59.6
78793;SHT31;68134;51.984;5.652;2023-03-12T16:56:25;13.1;60.1
78793;SHT31;68134;51.984;5.652;2023-03-12T16:58:58;13.0;60.1